createdAt,value
2023-05-05T05:04:50.757Z,12.10
2023-05-05T05:07:52.414Z,12.10
2023-05-05T05:10:54.038Z,12.10
2023-05-05T05:13:56.791Z,12.10
2023-05-05T05:16:58.417Z,12.20
2023-05-05T05:20:04.590Z,12.20
2023-05-05T05:23:06.395Z,12.20
2023-05-05T05:26:08.036Z,12.30
2023-05-05T05:29:09.714Z,12.30
2023-05-05T05:32:11.462Z,12.50
2023-05-05T05:35:13.244Z,12.50
2023-05-05T05:38:14.904Z,12.80
2023-05-05T05:41:17.434Z,12.90
2023-05-05T05:44:19.127Z,13.00
2023-05-05T05:47:20.852Z,13.10
2023-05-05T05:50:22.553Z,13.10
2023-05-05T05:53:24.426Z,13.10
2023-05-05T05:56:26.074Z,13.10
2023-05-05T05:59:28.007Z,13.10
2023-05-05T06:02:31.063Z,13.30
2023-05-05T06:05:32.792Z,13.30
2023-05-05T06:08:34.437Z,13.40
2023-05-05T06:11:37.058Z,13.40
2023-05-05T06:14:38.987Z,13.50
2023-05-05T06:17:40.663Z,13.50
2023-05-05T06:20:43.397Z,13.50
2023-05-05T06:23:45.221Z,13.50
2023-05-05T06:26:46.846Z,13.50
2023-05-05T06:29:49.070Z,13.60
2023-05-05T06:32:50.841Z,13.70
2023-05-05T06:35:52.814Z,13.80
2023-05-05T06:38:54.468Z,13.90
2023-05-05T06:41:56.296Z,13.90
2023-05-05T06:44:58.236Z,13.90
2023-05-05T06:47:59.907Z,13.80
2023-05-05T06:51:01.696Z,13.80
2023-05-05T06:54:03.596Z,13.80
2023-05-05T06:57:05.274Z,13.80
2023-05-05T07:00:11.162Z,13.90
2023-05-05T07:03:13.196Z,13.90
2023-05-05T07:06:15.044Z,13.80
2023-05-05T07:09:17.545Z,13.90
2023-05-05T07:12:19.367Z,14.00
2023-05-05T07:15:28.704Z,14.30
2023-05-05T07:18:31.360Z,14.50
2023-05-05T07:21:34.158Z,14.50
2023-05-05T07:24:36.014Z,14.40
2023-05-05T07:27:37.662Z,14.30
2023-05-05T07:30:39.321Z,14.30
2023-05-05T07:33:41.292Z,14.30
2023-05-05T07:36:43.059Z,14.30
2023-05-05T07:39:44.770Z,14.40
2023-05-05T07:42:47.496Z,14.40
2023-05-05T07:45:49.254Z,14.20
2023-05-05T07:48:51.233Z,14.10
2023-05-05T07:51:53.683Z,14.10
2023-05-05T07:54:55.580Z,14.20
2023-05-05T07:57:57.263Z,14.20
2023-05-05T08:00:59.410Z,14.10
2023-05-05T08:04:01.219Z,14.10
2023-05-05T08:07:03.088Z,14.10
2023-05-05T08:10:05.087Z,14.10
2023-05-05T08:13:06.822Z,14.10
2023-05-05T08:16:09.104Z,14.10
2023-05-05T08:19:21.088Z,14.30
2023-05-05T08:22:29.768Z,14.90
2023-05-05T08:25:31.473Z,15.20
2023-05-05T08:28:34.557Z,15.50
2023-05-05T08:31:39.584Z,15.70
2023-05-05T08:34:41.336Z,15.90
2023-05-05T08:37:43.178Z,15.90
2023-05-05T08:40:45.142Z,15.90
2023-05-05T08:43:47.992Z,16.00
2023-05-05T08:46:49.795Z,16.00
2023-05-05T08:49:52.688Z,16.00
2023-05-05T08:53:04.273Z,16.00
2023-05-05T08:56:06.171Z,16.00
2023-05-05T08:59:09.029Z,16.10
2023-05-05T09:02:10.960Z,16.20
2023-05-05T09:05:12.597Z,16.40
2023-05-05T09:08:14.227Z,16.40
2023-05-05T09:11:15.901Z,16.40
2023-05-05T09:14:17.876Z,16.40
2023-05-05T09:17:25.749Z,16.50
2023-05-05T09:20:35.140Z,16.80
2023-05-05T09:23:37.023Z,17.20
2023-05-05T09:26:43.062Z,17.50
2023-05-05T09:29:49.646Z,17.60
2023-05-05T09:32:52.804Z,17.50
2023-05-05T09:35:54.912Z,17.30
2023-05-05T09:39:06.341Z,17.10
2023-05-05T09:42:17.866Z,17.00
2023-05-05T09:45:19.925Z,17.00
2023-05-05T09:48:28.611Z,17.00
2023-05-05T09:51:31.685Z,17.10
2023-05-05T09:54:34.672Z,17.20
2023-05-05T09:57:36.319Z,17.40
2023-05-05T10:00:39.157Z,17.50
2023-05-05T10:03:51.421Z,17.70
2023-05-05T10:06:53.072Z,17.60
2023-05-05T10:09:54.700Z,17.50
2023-05-05T10:12:58.537Z,17.60
2023-05-05T10:16:00.290Z,17.80
2023-05-05T10:19:02.912Z,17.80
2023-05-05T10:22:04.718Z,18.00
2023-05-05T10:25:10.267Z,17.80
2023-05-05T10:28:13.050Z,17.60
2023-05-05T10:31:25.939Z,17.50
2023-05-05T10:34:40.900Z,17.50
2023-05-05T10:37:42.545Z,17.50
2023-05-05T10:40:47.262Z,17.50
2023-05-05T10:43:49.069Z,17.50
2023-05-05T10:46:50.797Z,17.60
2023-05-05T10:50:27.431Z,17.50
2023-05-05T10:53:30.834Z,17.40
2023-05-05T10:56:33.796Z,17.20
2023-05-05T10:59:38.942Z,17.30
2023-05-05T11:02:41.351Z,17.70
2023-05-05T11:06:05.032Z,18.00
2023-05-05T11:09:28.669Z,18.10
2023-05-05T11:12:31.366Z,18.20
2023-05-05T11:15:37.374Z,18.40
2023-05-05T11:18:40.291Z,18.60
2023-05-05T11:22:00.793Z,18.70
2023-05-05T11:25:48.269Z,18.70
2023-05-05T11:29:02.566Z,18.70
2023-05-05T11:32:14.021Z,18.90
2023-05-05T11:35:16.218Z,19.00
2023-05-05T11:38:17.848Z,19.10
2023-05-05T11:41:28.653Z,19.00
2023-05-05T11:44:33.777Z,18.70
2023-05-05T11:47:36.182Z,18.40
2023-05-05T11:50:37.908Z,18.20
2023-05-05T11:53:43.843Z,18.10
2023-05-05T11:56:53.134Z,18.30
2023-05-05T12:00:02.539Z,18.80
2023-05-05T12:03:04.640Z,19.20
2023-05-05T12:06:07.054Z,19.70
2023-05-05T12:09:15.357Z,19.90
2023-05-05T12:12:17.182Z,19.90
2023-05-05T12:15:28.315Z,19.70
2023-05-05T12:18:30.177Z,19.80
2023-05-05T12:21:32.195Z,20.00
2023-05-05T12:24:34.404Z,20.00
2023-05-05T12:27:36.394Z,19.70
2023-05-05T12:30:38.249Z,19.70
2023-05-05T12:33:40.357Z,19.50
2023-05-05T12:36:42.344Z,19.70
2023-05-05T12:39:44.072Z,19.70
2023-05-05T12:42:46.464Z,19.70
2023-05-05T12:45:49.432Z,19.30
2023-05-05T12:49:05.353Z,19.10
2023-05-05T12:52:07.885Z,19.20
2023-05-05T12:55:10.257Z,19.40
2023-05-05T12:58:11.995Z,19.50
2023-05-05T13:01:13.649Z,19.40
2023-05-05T13:04:15.397Z,19.50
2023-05-05T13:07:17.879Z,19.50
2023-05-05T13:10:19.638Z,19.50
2023-05-05T13:13:21.473Z,19.50
2023-05-05T13:16:23.253Z,19.50
2023-05-05T13:19:25.184Z,19.70
2023-05-05T13:22:27.068Z,19.90
2023-05-05T13:25:28.713Z,20.00
2023-05-05T13:28:30.523Z,20.20
2023-05-05T13:31:32.302Z,20.20
2023-05-05T13:34:34.170Z,20.30
2023-05-05T13:37:36.012Z,20.50
2023-05-05T13:40:37.714Z,21.10
2023-05-05T13:43:39.609Z,21.40
2023-05-05T13:46:44.078Z,21.40
2023-05-05T13:49:45.980Z,21.40
2023-05-05T13:52:47.652Z,21.30
2023-05-05T13:55:49.316Z,21.40
2023-05-05T13:58:50.949Z,21.30
2023-05-05T14:01:52.771Z,21.10
2023-05-05T14:04:54.411Z,21.40
2023-05-05T14:07:56.209Z,21.50
2023-05-05T14:10:57.905Z,21.50
2023-05-05T14:13:59.898Z,21.50
2023-05-05T14:17:01.614Z,21.30
2023-05-05T14:20:03.631Z,20.90
2023-05-05T14:23:05.464Z,21.00
2023-05-05T14:26:08.927Z,21.10
2023-05-05T14:29:10.781Z,21.10
2023-05-05T14:32:12.509Z,20.90
2023-05-05T14:35:14.474Z,20.60
2023-05-05T14:38:16.166Z,20.30
2023-05-05T14:41:17.817Z,20.30
2023-05-05T14:44:19.768Z,20.30
2023-05-05T14:47:21.420Z,20.30
2023-05-05T14:50:23.219Z,20.10
2023-05-05T14:53:25.052Z,20.10
2023-05-05T14:56:26.856Z,20.00
2023-05-05T14:59:28.844Z,19.80
2023-05-05T15:02:30.767Z,19.90
2023-05-05T15:05:32.481Z,20.30
2023-05-05T15:08:34.276Z,20.70
2023-05-05T15:11:35.965Z,21.00
2023-05-05T15:14:38.161Z,21.20
2023-05-05T15:17:41.609Z,21.50
2023-05-05T15:20:43.434Z,21.70
2023-05-05T15:23:45.280Z,22.10
2023-05-05T15:26:46.902Z,22.20
2023-05-05T15:29:48.806Z,22.10
2023-05-05T15:32:51.199Z,22.10
2023-05-05T15:35:52.887Z,22.50
2023-05-05T15:38:54.543Z,22.80
2023-05-05T15:41:56.179Z,22.90
2023-05-05T15:44:58.673Z,23.60
2023-05-05T15:48:00.378Z,24.00
2023-05-05T15:51:02.094Z,24.00
2023-05-05T15:54:04.001Z,24.00
2023-05-05T15:57:05.697Z,23.80
2023-05-05T16:00:08.411Z,23.50
2023-05-05T16:03:10.156Z,23.40
2023-05-05T16:06:12.323Z,23.30
2023-05-05T16:09:13.982Z,23.00
2023-05-05T16:12:15.784Z,22.90
2023-05-05T16:15:17.762Z,22.70
2023-05-05T16:18:19.450Z,22.70
2023-05-05T16:21:21.072Z,22.70
2023-05-05T16:24:23.382Z,22.60
2023-05-05T16:27:25.033Z,22.50
2023-05-05T16:30:26.782Z,22.00
2023-05-05T16:33:28.747Z,21.40
2023-05-05T16:36:30.429Z,20.70
2023-05-05T16:39:32.996Z,20.30
2023-05-05T16:42:34.732Z,20.10
2023-05-05T16:45:36.442Z,20.00
2023-05-05T16:48:38.120Z,19.90
2023-05-05T16:51:39.754Z,19.90
2023-05-05T16:54:41.730Z,19.90
2023-05-05T16:57:43.463Z,20.00
2023-05-05T17:00:46.769Z,20.00
2023-05-05T17:03:48.442Z,20.00
2023-05-05T17:06:50.786Z,20.00
2023-05-05T17:09:52.420Z,19.80
2023-05-05T17:12:54.288Z,19.60
2023-05-05T17:15:57.217Z,19.50
2023-05-05T17:18:58.835Z,19.30
2023-05-05T17:22:00.719Z,19.30
2023-05-05T17:25:03.741Z,19.30
2023-05-05T17:28:05.455Z,19.20
2023-05-05T17:31:07.098Z,19.10
2023-05-05T17:34:08.870Z,19.00
2023-05-05T17:37:11.014Z,18.90
2023-05-05T17:40:12.746Z,18.90
2023-05-05T17:43:14.481Z,18.80
2023-05-05T17:46:16.169Z,18.70
2023-05-05T17:49:17.868Z,18.70
2023-05-05T17:52:20.111Z,18.50
2023-05-05T17:55:21.914Z,18.50
2023-05-05T17:58:23.620Z,18.50
2023-05-05T18:01:25.982Z,18.50
2023-05-05T18:04:27.642Z,18.50
2023-05-05T18:07:29.588Z,18.40
2023-05-05T18:10:33.838Z,18.20
2023-05-05T18:13:36.109Z,18.10
2023-05-05T18:16:37.765Z,18.00
2023-05-05T18:19:44.247Z,18.00
2023-05-05T18:22:46.618Z,18.00
2023-05-05T18:25:48.239Z,17.80
2023-05-05T18:28:49.968Z,17.80
2023-05-05T18:31:54.611Z,17.70
2023-05-05T18:34:56.561Z,17.60
2023-05-05T18:37:58.190Z,17.50
2023-05-05T18:40:59.841Z,17.50
2023-05-05T18:44:01.793Z,17.20
2023-05-05T18:47:03.614Z,17.10
2023-05-05T18:50:06.082Z,17.00
2023-05-05T18:53:08.092Z,16.80
2023-05-05T18:56:09.777Z,16.70
2023-05-05T18:59:11.691Z,16.50
2023-05-05T19:02:13.366Z,16.40
2023-05-05T19:05:15.152Z,16.40
2023-05-05T19:08:16.796Z,16.30
2023-05-05T19:11:18.483Z,16.20
2023-05-05T19:14:20.284Z,16.10
2023-05-05T19:17:21.916Z,16.10
2023-05-05T19:20:23.621Z,16.00
2023-05-05T19:23:25.552Z,16.00
2023-05-05T19:26:27.531Z,15.90
2023-05-05T19:29:32.011Z,15.80
2023-05-05T19:32:34.022Z,15.80
2023-05-05T19:35:35.811Z,15.80
2023-05-05T19:38:37.450Z,15.70
2023-05-05T19:41:39.164Z,15.60
2023-05-05T19:44:41.051Z,15.60
2023-05-05T19:47:42.808Z,15.60
2023-05-05T19:50:44.466Z,15.50
2023-05-05T19:53:46.336Z,15.40
2023-05-05T19:56:48.131Z,15.40
2023-05-05T19:59:49.854Z,15.30
2023-05-05T20:02:51.868Z,15.30
2023-05-05T20:05:53.557Z,15.20
2023-05-05T20:08:55.538Z,15.10
2023-05-05T20:11:58.958Z,15.00
2023-05-05T20:15:01.274Z,14.90
2023-05-05T20:18:03.061Z,14.80
2023-05-05T20:21:04.900Z,14.70
2023-05-05T20:24:07.131Z,14.60
2023-05-05T20:27:08.774Z,14.60
2023-05-05T20:30:11.883Z,14.50
2023-05-05T20:33:13.655Z,14.50
2023-05-05T20:36:15.640Z,14.50
2023-05-05T20:39:17.433Z,14.40
2023-05-05T20:42:19.485Z,14.30
2023-05-05T20:45:21.426Z,14.30
2023-05-05T20:48:25.981Z,14.30
2023-05-05T20:51:31.445Z,14.20
2023-05-05T20:54:36.566Z,14.20
2023-05-05T20:57:38.248Z,14.20
2023-05-05T21:00:39.988Z,14.20
2023-05-05T21:03:41.733Z,14.10
2023-05-05T21:06:43.419Z,14.10
2023-05-05T21:09:48.039Z,14.10
2023-05-05T21:12:49.882Z,14.00
2023-05-05T21:15:51.669Z,13.90
2023-05-05T21:18:53.322Z,13.90
2023-05-05T21:21:58.882Z,13.80
2023-05-05T21:25:17.139Z,13.70
2023-05-05T21:28:18.797Z,13.60
2023-05-05T21:31:22.263Z,13.60
2023-05-05T21:34:24.479Z,13.50
2023-05-05T21:37:26.256Z,13.50
2023-05-05T21:40:27.950Z,13.50
2023-05-05T21:43:29.709Z,13.40
2023-05-05T21:46:31.497Z,13.30
2023-05-05T21:49:33.221Z,13.30
2023-05-05T21:52:35.042Z,13.30
2023-05-05T21:55:36.669Z,13.30
2023-05-05T21:58:38.339Z,13.30
2023-05-05T22:01:40.098Z,13.30
2023-05-05T22:04:41.834Z,13.30
2023-05-05T22:07:43.487Z,13.20
2023-05-05T22:10:45.259Z,13.10
2023-05-05T22:13:47.130Z,13.10
2023-05-05T22:16:48.867Z,13.20
2023-05-05T22:19:50.645Z,13.20
2023-05-05T22:22:52.409Z,13.20
2023-05-05T22:25:54.076Z,13.20
2023-05-05T22:28:55.818Z,13.10
2023-05-05T22:31:57.541Z,13.10
2023-05-05T22:34:59.255Z,13.10
2023-05-05T22:38:01.422Z,13.00
2023-05-05T22:41:03.068Z,13.00
2023-05-05T22:44:04.962Z,12.90
2023-05-05T22:47:07.024Z,12.80
2023-05-05T22:50:09.206Z,12.80
2023-05-05T22:53:11.056Z,12.70
2023-05-05T22:56:12.696Z,12.70
2023-05-05T22:59:14.339Z,12.60
2023-05-05T23:02:16.356Z,12.60
2023-05-05T23:05:18.059Z,12.50
2023-05-05T23:08:20.476Z,12.50
2023-05-05T23:11:22.124Z,12.50
2023-05-05T23:14:24.104Z,12.50
2023-05-05T23:17:25.808Z,12.50
2023-05-05T23:20:27.630Z,12.50
2023-05-05T23:23:30.107Z,12.50
2023-05-05T23:26:31.726Z,12.50
2023-05-05T23:29:33.360Z,12.50
2023-05-05T23:32:35.320Z,12.50
2023-05-05T23:35:39.482Z,12.50
2023-05-05T23:38:41.269Z,12.50
2023-05-05T23:41:42.915Z,12.50
2023-05-05T23:44:44.589Z,12.50
2023-05-05T23:47:46.358Z,12.50
2023-05-05T23:50:48.027Z,12.50
2023-05-05T23:53:49.876Z,12.40
2023-05-05T23:56:51.699Z,12.30
2023-05-05T23:59:53.348Z,12.40
